sensor_id;sensor_type;location;lat;lon;timestamp;pressure;altitude;pressure_sealevel;temperature;humidity
38253;BME280;24785;52.372;20.672;2023-06-24T00:03:19;100795.31;;;17.29;97.90
38253;BME280;24785;52.372;20.672;2023-06-24T00:13:20;100810.53;;;17.39;97.45
38253;BME280;24785;52.372;20.672;2023-06-24T00:23:22;100810.38;;;17.44;96.82
38253;BME280;24785;52.372;20.672;2023-06-24T00:33:26;100817.72;;;17.43;98.04
38253;BME280;24785;52.372;20.672;2023-06-24T00:43:27;100825.00;;;17.12;100.00
38253;BME280;24785;52.372;20.672;2023-06-24T00:53:30;100841.44;;;17.15;99.00
38253;BME280;24785;52.372;20.672;2023-06-24T01:03:31;100855.72;;;17.07;98.98
38253;BME280;24785;52.372;20.672;2023-06-24T01:13:32;100860.75;;;17.22;97.18
38253;BME280;24785;52.372;20.672;2023-06-24T01:23:51;100869.25;;;17.29;95.28
38253;BME280;24785;52.372;20.672;2023-06-24T01:34:15;100870.19;;;17.25;93.49
38253;BME280;24785;52.372;20.672;2023-06-24T01:44:19;100871.97;;;17.07;96.84
38253;BME280;24785;52.372;20.672;2023-06-24T01:54:22;100849.44;;;16.84;96.50
38253;BME280;24785;52.372;20.672;2023-06-24T02:04:24;100854.66;;;16.81;97.67
38253;BME280;24785;52.372;20.672;2023-06-24T02:14:27;100845.56;;;16.63;99.09
38253;BME280;24785;52.372;20.672;2023-06-24T02:24:29;100875.00;;;16.51;100.00
38253;BME280;24785;52.372;20.672;2023-06-24T02:34:30;100891.56;;;16.35;100.00
38253;BME280;24785;52.372;20.672;2023-06-24T02:44:32;100905.28;;;16.25;100.00
38253;BME280;24785;52.372;20.672;2023-06-24T02:54:34;100912.59;;;16.38;100.00
38253;BME280;24785;52.372;20.672;2023-06-24T03:04:35;100920.75;;;16.66;100.00
38253;BME280;24785;52.372;20.672;2023-06-24T03:14:39;100929.00;;;17.11;100.00
38253;BME280;24785;52.372;20.672;2023-06-24T03:24:39;100930.22;;;17.05;100.00
38253;BME280;24785;52.372;20.672;2023-06-24T03:34:40;100928.78;;;17.21;100.00
38253;BME280;24785;52.372;20.672;2023-06-24T03:44:41;100943.25;;;17.52;100.00
38253;BME280;24785;52.372;20.672;2023-06-24T03:54:43;100942.50;;;17.83;100.00
38253;BME280;24785;52.372;20.672;2023-06-24T04:04:43;100939.66;;;18.10;100.00
38253;BME280;24785;52.372;20.672;2023-06-24T04:14:44;100949.00;;;18.27;100.00
38253;BME280;24785;52.372;20.672;2023-06-24T04:24:45;100944.94;;;18.46;100.00
38253;BME280;24785;52.372;20.672;2023-06-24T04:34:46;100941.56;;;18.80;94.43
38253;BME280;24785;52.372;20.672;2023-06-24T04:44:47;100946.19;;;18.80;90.73
38253;BME280;24785;52.372;20.672;2023-06-24T04:54:51;100944.25;;;18.72;93.24
38253;BME280;24785;52.372;20.672;2023-06-24T05:04:52;100952.19;;;19.34;85.43
38253;BME280;24785;52.372;20.672;2023-06-24T05:14:53;100955.06;;;19.80;81.99
38253;BME280;24785;52.372;20.672;2023-06-24T05:24:54;100977.66;;;19.64;78.20
38253;BME280;24785;52.372;20.672;2023-06-24T05:34:55;100979.19;;;20.63;73.72
38253;BME280;24785;52.372;20.672;2023-06-24T05:44:56;100987.94;;;20.22;71.25
38253;BME280;24785;52.372;20.672;2023-06-24T05:54:57;100999.63;;;20.40;71.86
38253;BME280;24785;52.372;20.672;2023-06-24T06:04:58;101000.50;;;20.61;71.15
38253;BME280;24785;52.372;20.672;2023-06-24T06:14:58;101011.50;;;20.82;70.73
38253;BME280;24785;52.372;20.672;2023-06-24T06:24:59;100996.13;;;22.11;65.36
38253;BME280;24785;52.372;20.672;2023-06-24T06:35:02;100994.63;;;22.59;60.59
38253;BME280;24785;52.372;20.672;2023-06-24T06:45:03;100987.44;;;22.42;55.19
38253;BME280;24785;52.372;20.672;2023-06-24T06:55:04;100985.94;;;22.33;54.44
38253;BME280;24785;52.372;20.672;2023-06-24T07:05:05;100986.59;;;22.87;52.17
38253;BME280;24785;52.372;20.672;2023-06-24T07:15:07;100982.59;;;22.97;52.49
38253;BME280;24785;52.372;20.672;2023-06-24T07:25:09;100974.53;;;23.40;50.75
38253;BME280;24785;52.372;20.672;2023-06-24T07:35:10;100973.25;;;22.98;52.64
38253;BME280;24785;52.372;20.672;2023-06-24T07:45:11;100992.47;;;23.13;51.82
38253;BME280;24785;52.372;20.672;2023-06-24T07:55:12;100995.47;;;23.89;50.08
38253;BME280;24785;52.372;20.672;2023-06-24T08:05:13;100993.28;;;23.54;50.10
38253;BME280;24785;52.372;20.672;2023-06-24T08:15:14;101001.97;;;23.56;50.44
38253;BME280;24785;52.372;20.672;2023-06-24T08:25:15;100996.59;;;23.60;50.98
38253;BME280;24785;52.372;20.672;2023-06-24T08:35:16;100999.81;;;23.90;48.79
38253;BME280;24785;52.372;20.672;2023-06-24T08:45:17;101007.75;;;23.95;49.61
38253;BME280;24785;52.372;20.672;2023-06-24T08:55:19;101012.78;;;24.21;47.35
38253;BME280;24785;52.372;20.672;2023-06-24T09:05:23;101022.81;;;24.60;46.85
38253;BME280;24785;52.372;20.672;2023-06-24T09:15:23;101018.47;;;24.43;47.22
38253;BME280;24785;52.372;20.672;2023-06-24T09:25:25;101017.44;;;24.64;45.85
38253;BME280;24785;52.372;20.672;2023-06-24T09:35:26;101018.25;;;24.21;46.34
38253;BME280;24785;52.372;20.672;2023-06-24T09:45:28;101018.41;;;24.71;47.47
38253;BME280;24785;52.372;20.672;2023-06-24T09:55:29;101026.50;;;24.08;47.18
38253;BME280;24785;52.372;20.672;2023-06-24T10:05:30;101031.19;;;24.52;46.88
38253;BME280;24785;52.372;20.672;2023-06-24T10:15:32;101036.97;;;24.18;47.37
38253;BME280;24785;52.372;20.672;2023-06-24T10:25:36;101033.19;;;24.23;46.81
38253;BME280;24785;52.372;20.672;2023-06-24T10:35:41;101042.69;;;24.41;47.82
38253;BME280;24785;52.372;20.672;2023-06-24T10:45:49;101033.69;;;23.85;48.69
38253;BME280;24785;52.372;20.672;2023-06-24T10:55:50;101036.84;;;23.59;48.02
38253;BME280;24785;52.372;20.672;2023-06-24T11:05:51;101033.63;;;23.69;48.90
38253;BME280;24785;52.372;20.672;2023-06-24T11:15:52;101038.69;;;24.11;48.74
38253;BME280;24785;52.372;20.672;2023-06-24T11:25:54;101040.50;;;23.91;48.07
38253;BME280;24785;52.372;20.672;2023-06-24T11:35:57;101047.88;;;23.75;49.15
38253;BME280;24785;52.372;20.672;2023-06-24T11:45:58;101046.44;;;23.65;50.46
38253;BME280;24785;52.372;20.672;2023-06-24T11:55:58;101043.38;;;23.30;52.76
38253;BME280;24785;52.372;20.672;2023-06-24T12:06:00;101058.19;;;23.17;54.70
38253;BME280;24785;52.372;20.672;2023-06-24T12:16:01;101055.13;;;23.06;54.03
38253;BME280;24785;52.372;20.672;2023-06-24T12:26:02;101066.41;;;23.29;50.66
38253;BME280;24785;52.372;20.672;2023-06-24T12:36:03;101054.50;;;23.62;48.57
38253;BME280;24785;52.372;20.672;2023-06-24T12:46:04;101052.94;;;23.89;46.15
38253;BME280;24785;52.372;20.672;2023-06-24T12:56:05;101057.44;;;23.81;46.00
38253;BME280;24785;52.372;20.672;2023-06-24T13:06:06;101052.91;;;23.48;46.92
38253;BME280;24785;52.372;20.672;2023-06-24T13:16:06;101044.81;;;23.52;47.84
38253;BME280;24785;52.372;20.672;2023-06-24T13:26:07;101047.88;;;23.50;48.92
38253;BME280;24785;52.372;20.672;2023-06-24T13:36:27;101050.28;;;23.52;48.29
38253;BME280;24785;52.372;20.672;2023-06-24T13:46:29;101048.06;;;23.82;48.88
38253;BME280;24785;52.372;20.672;2023-06-24T13:56:30;101047.59;;;24.08;49.57
38253;BME280;24785;52.372;20.672;2023-06-24T14:06:31;101049.72;;;23.59;49.47
38253;BME280;24785;52.372;20.672;2023-06-24T14:16:32;101037.59;;;22.83;43.97
38253;BME280;24785;52.372;20.672;2023-06-24T14:26:33;101035.47;;;22.55;46.43
38253;BME280;24785;52.372;20.672;2023-06-24T14:36:35;101051.41;;;22.53;53.51
38253;BME280;24785;52.372;20.672;2023-06-24T14:56:37;101039.69;;;22.65;56.82
38253;BME280;24785;52.372;20.672;2023-06-24T15:06:38;101034.25;;;23.14;53.16
38253;BME280;24785;52.372;20.672;2023-06-24T15:16:39;101031.09;;;23.12;52.44
38253;BME280;24785;52.372;20.672;2023-06-24T15:26:40;101024.44;;;23.37;49.68
38253;BME280;24785;52.372;20.672;2023-06-24T15:36:41;101022.03;;;26.42;43.82
38253;BME280;24785;52.372;20.672;2023-06-24T15:46:44;101002.09;;;27.21;37.22
38253;BME280;24785;52.372;20.672;2023-06-24T15:56:47;100997.16;;;24.84;35.65
38253;BME280;24785;52.372;20.672;2023-06-24T16:06:48;101000.56;;;24.18;38.84
38253;BME280;24785;52.372;20.672;2023-06-24T16:16:49;101000.78;;;24.57;39.06
38253;BME280;24785;52.372;20.672;2023-06-24T16:26:52;100992.75;;;24.48;40.41
38253;BME280;24785;52.372;20.672;2023-06-24T16:36:53;100990.91;;;24.52;41.57
38253;BME280;24785;52.372;20.672;2023-06-24T16:46:54;100994.59;;;24.44;43.32
38253;BME280;24785;52.372;20.672;2023-06-24T16:56:55;101000.41;;;24.90;43.64
38253;BME280;24785;52.372;20.672;2023-06-24T17:06:56;100991.78;;;24.72;44.50
38253;BME280;24785;52.372;20.672;2023-06-24T17:16:58;100988.50;;;24.35;45.85
38253;BME280;24785;52.372;20.672;2023-06-24T17:26:58;100987.63;;;24.31;47.94
38253;BME280;24785;52.372;20.672;2023-06-24T17:36:59;100986.22;;;24.09;47.73
38253;BME280;24785;52.372;20.672;2023-06-24T17:47:01;100967.22;;;23.57;48.12
38253;BME280;24785;52.372;20.672;2023-06-24T17:57:02;100974.22;;;23.30;49.08
38253;BME280;24785;52.372;20.672;2023-06-24T18:07:03;100973.94;;;22.82;50.54
38253;BME280;24785;52.372;20.672;2023-06-24T18:17:04;100982.22;;;22.49;51.73
38253;BME280;24785;52.372;20.672;2023-06-24T18:27:05;100990.25;;;21.67;55.86
38253;BME280;24785;52.372;20.672;2023-06-24T18:37:06;101002.81;;;20.89;59.71
38253;BME280;24785;52.372;20.672;2023-06-24T18:47:07;101017.13;;;20.04;64.06
38253;BME280;24785;52.372;20.672;2023-06-24T18:57:08;101012.75;;;19.26;68.31
38253;BME280;24785;52.372;20.672;2023-06-24T19:07:09;101021.28;;;18.53;73.30
38253;BME280;24785;52.372;20.672;2023-06-24T19:17:09;101020.00;;;17.98;79.43
38253;BME280;24785;52.372;20.672;2023-06-24T19:27:11;101027.22;;;17.52;86.09
38253;BME280;24785;52.372;20.672;2023-06-24T19:37:11;101023.47;;;17.26;92.85
38253;BME280;24785;52.372;20.672;2023-06-24T19:47:15;101023.91;;;17.06;95.64
38253;BME280;24785;52.372;20.672;2023-06-24T19:57:17;101019.88;;;16.89;96.26
38253;BME280;24785;52.372;20.672;2023-06-24T20:07:19;101022.47;;;16.67;95.84
38253;BME280;24785;52.372;20.672;2023-06-24T20:17:19;101025.91;;;16.54;96.61
38253;BME280;24785;52.372;20.672;2023-06-24T20:27:20;101028.63;;;16.54;97.02
38253;BME280;24785;52.372;20.672;2023-06-24T20:37:21;101026.97;;;16.25;97.31
38253;BME280;24785;52.372;20.672;2023-06-24T20:47:22;101029.91;;;15.54;100.00
38253;BME280;24785;52.372;20.672;2023-06-24T20:57:23;101043.41;;;15.35;100.00
38253;BME280;24785;52.372;20.672;2023-06-24T21:07:24;101030.81;;;14.83;100.00
38253;BME280;24785;52.372;20.672;2023-06-24T21:17:25;101030.38;;;14.46;100.00
38253;BME280;24785;52.372;20.672;2023-06-24T21:27:26;101033.47;;;14.30;100.00
38253;BME280;24785;52.372;20.672;2023-06-24T21:37:26;101047.56;;;14.16;100.00
38253;BME280;24785;52.372;20.672;2023-06-24T21:47:27;101049.78;;;13.70;100.00
38253;BME280;24785;52.372;20.672;2023-06-24T21:57:29;101043.13;;;13.58;100.00
38253;BME280;24785;52.372;20.672;2023-06-24T22:07:30;101045.47;;;13.69;100.00
38253;BME280;24785;52.372;20.672;2023-06-24T22:17:31;101060.38;;;13.57;100.00
38253;BME280;24785;52.372;20.672;2023-06-24T22:27:32;101051.84;;;13.39;100.00
38253;BME280;24785;52.372;20.672;2023-06-24T22:37:32;101048.41;;;13.23;100.00
38253;BME280;24785;52.372;20.672;2023-06-24T22:47:33;101057.84;;;13.11;100.00
38253;BME280;24785;52.372;20.672;2023-06-24T22:57:34;101042.31;;;12.87;100.00
38253;BME280;24785;52.372;20.672;2023-06-24T23:07:36;101049.63;;;12.61;100.00
38253;BME280;24785;52.372;20.672;2023-06-24T23:17:37;101050.19;;;12.48;100.00
38253;BME280;24785;52.372;20.672;2023-06-24T23:27:39;101039.16;;;12.29;100.00
38253;BME280;24785;52.372;20.672;2023-06-24T23:37:40;101042.94;;;12.08;100.00
38253;BME280;24785;52.372;20.672;2023-06-24T23:47:41;101031.91;;;12.05;100.00
38253;BME280;24785;52.372;20.672;2023-06-24T23:57:41;101049.63;;;11.90;100.00
